F/V Attalaya Berria — FHCB — position and weather

sailwx.info

Track history (hours):
 
Tides and Currents Weather Stations Pressure Air Temp Water Temp Dewpoint Dewpoint Depression Visibility Wind Speed Wind Dir Waves Ship Positions

F/V Attalaya Berria

Last reported at 2017-Jan-19 04:33 UTC. Time now 2017-Jan-19 08:46 UTC.
Position N 43°23' W 001°47'.

Length 26 m.

Type: Fishing. MMSI: 228315000.

Date/timePositionNaut miles runAvg speedWind from/ knotsBaromVisibWave heightAir tempDewpointWater temp
2017-Jan-19 04:33N 43°23' W 001°47'0 0.0
2017-Jan-19 03:33N 43°23' W 001°47'1 0.2
2017-Jan-18 22:30N 43°24' W 001°48'5 5.7
2017-Jan-18 21:33N 43°26' W 001°40'1 1.1
2017-Jan-18 20:33N 43°27' W 001°40'1 1.0
2017-Jan-18 19:27N 43°26' W 001°41'1 0.9
2017-Jan-18 18:31N 43°26' W 001°42'  
2017-Jan-10 04:16N 43°22' W 001°47'0 0.3
2017-Jan-10 03:33N 43°22' W 001°47'0 0.4
2017-Jan-10 02:33N 43°22' W 001°47'2 1.8
2017-Jan-10 01:33N 43°24' W 001°47'4 1.0
2017-Jan-09 21:22N 43°23' W 001°52'810.2
2017-Jan-09 20:33N 43°28' W 001°43'2 2.1
2017-Jan-09 19:34N 43°29' W 001°41'1 1.2
2017-Jan-09 18:33N 43°28' W 001°40'6 5.7
2017-Jan-09 17:33N 43°24' W 001°46'1 0.1
2017-Jan-09 04:33N 43°23' W 001°47'  
Track history (hours):
 
Tides and Currents Weather Stations Pressure Air Temp Water Temp Dewpoint Dewpoint Depression Visibility Wind Speed Wind Dir Waves Ship Positions

F/V Attalaya Berria

Last reported at 2017-Jan-19 04:33 UTC. Time now 2017-Jan-19 08:46 UTC.
Position N 43°23' W 001°47'.

Length 26 m.

Type: Fishing. MMSI: 228315000.

Date/timePositionNaut miles runAvg speedWind from/ knotsBaromVisibWave heightAir tempDewpointWater temp
2017-Jan-19 04:33N 43°23' W 001°47'0 0.0
2017-Jan-19 03:33N 43°23' W 001°47'1 0.2
2017-Jan-18 22:30N 43°24' W 001°48'5 5.7
2017-Jan-18 21:33N 43°26' W 001°40'1 1.1
2017-Jan-18 20:33N 43°27' W 001°40'1 1.0
2017-Jan-18 19:27N 43°26' W 001°41'1 0.9
2017-Jan-18 18:31N 43°26' W 001°42'  
2017-Jan-10 04:16N 43°22' W 001°47'0 0.3
2017-Jan-10 03:33N 43°22' W 001°47'0 0.4
2017-Jan-10 02:33N 43°22' W 001°47'2 1.8
2017-Jan-10 01:33N 43°24' W 001°47'4 1.0
2017-Jan-09 21:22N 43°23' W 001°52'810.2
2017-Jan-09 20:33N 43°28' W 001°43'2 2.1
2017-Jan-09 19:34N 43°29' W 001°41'1 1.2
2017-Jan-09 18:33N 43°28' W 001°40'6 5.7
2017-Jan-09 17:33N 43°24' W 001°46'1 0.1
2017-Jan-09 04:33N 43°23' W 001°47'  

Dump ship's entire track history